Time;durP1;ratioP1;P1;durP2;ratioP2;P2;SDS_P1;SDS_P2;PMS_P1;PMS_P2;Temp;Humidity;BMP_temperature;BMP_pressure;BME280_temperature;BME280_humidity;BME280_pressure;Samples;Min_cycle;Max_cycle;Signal;HPM_P1;HPM_P2
2022/08/29 00:05:00;;;;;;;9.80;3.70;;;24.60;64.70;;;;;;220720;1267;25294;-55
2022/08/29 00:10:06;;;;;;;7.40;3.10;;;24.60;65.00;;;;;;220887;1267;22627;-55
2022/08/29 00:15:11;;;;;;;5.90;3.30;;;24.50;65.10;;;;;;220764;1267;24422;-52
2022/08/29 00:20:19;;;;;;;9.50;3.70;;;24.60;65.00;;;;;;220753;1268;25401;-54
2022/08/29 00:25:26;;;;;;;7.10;3.00;;;24.60;65.00;;;;;;220729;1267;22628;-54
2022/08/29 00:30:30;;;;;;;8.60;3.60;;;24.60;64.80;;;;;;220768;1267;22544;-52
2022/08/29 00:35:37;;;;;;;8.00;3.90;;;24.50;64.40;;;;;;220382;1267;22566;-55
2022/08/29 00:40:54;;;;;;;8.90;3.70;;;24.50;64.30;;;;;;220847;1267;22681;-52
2022/08/29 00:46:07;;;;;;;8.90;3.80;;;24.50;64.20;;;;;;220609;1267;22841;-54
2022/08/29 00:51:16;;;;;;;14.60;3.50;;;24.50;64.10;;;;;;220413;1267;25245;-55
2022/08/29 00:56:20;;;;;;;6.30;3.70;;;24.50;64.00;;;;;;220523;1267;22529;-56
2022/08/29 01:01:24;;;;;;;9.40;3.80;;;24.50;64.00;;;;;;220352;1267;22567;-53
2022/08/29 01:06:30;;;;;;;7.50;2.90;;;24.40;63.80;;;;;;220240;1270;22551;-54
2022/08/29 01:16:59;;;;;;;9.00;3.80;;;24.40;63.60;;;;;;220329;1271;22528;-54
2022/08/29 01:22:14;;;;;;;5.80;3.10;;;24.40;63.60;;;;;;220832;1268;22596;-52
2022/08/29 01:27:21;;;;;;;6.30;3.40;;;24.40;63.50;;;;;;220694;1267;24422;-56
2022/08/29 01:32:26;;;;;;;5.40;3.10;;;24.40;63.40;;;;;;220793;1267;22550;-52
2022/08/29 01:37:32;;;;;;;9.30;3.80;;;24.40;63.40;;;;;;220997;1266;23952;-53
2022/08/29 01:42:36;;;;;;;6.00;3.30;;;24.40;63.70;;;;;;220359;1267;25234;-55
2022/08/29 01:47:40;;;;;;;8.50;3.80;;;24.40;63.30;;;;;;220543;1267;22532;-53
2022/08/29 01:52:43;;;;;;;7.50;3.30;;;24.40;63.20;;;;;;220508;1268;25657;-53
2022/08/29 01:57:47;;;;;;;9.70;3.50;;;24.40;63.20;;;;;;220141;1267;22544;-54
2022/08/29 02:02:55;;;;;;;7.00;3.40;;;24.30;63.10;;;;;;220340;1267;22562;-52
2022/08/29 02:07:59;;;;;;;9.40;3.40;;;24.30;63.00;;;;;;220645;1267;24298;-54
2022/08/29 02:13:04;;;;;;;8.20;3.30;;;24.30;63.00;;;;;;220300;1267;25406;-51
2022/08/29 02:18:08;;;;;;;6.10;3.00;;;24.30;62.50;;;;;;220782;1267;25331;-52
2022/08/29 02:23:13;;;;;;;7.60;3.10;;;24.20;62.80;;;;;;220555;1267;22547;-54
2022/08/29 02:28:35;;;;;;;8.70;3.20;;;24.20;62.80;;;;;;220350;1270;24368;-52
2022/08/29 02:33:39;;;;;;;11.20;3.30;;;24.30;63.20;;;;;;220320;1267;24259;-52
2022/08/29 02:38:44;;;;;;;6.40;3.20;;;24.20;63.10;;;;;;220285;1270;25574;-54
2022/08/29 02:43:48;;;;;;;6.90;3.30;;;24.20;62.20;;;;;;220309;1267;22823;-53
2022/08/29 02:48:53;;;;;;;8.30;3.80;;;24.20;62.60;;;;;;220467;1267;24322;-53
2022/08/29 02:54:04;;;;;;;8.70;3.50;;;24.10;62.60;;;;;;220256;1267;25500;-54
2022/08/29 02:59:08;;;;;;;5.80;3.10;;;24.20;63.00;;;;;;220352;1267;26438;-53
2022/08/29 03:04:12;;;;;;;6.40;2.80;;;24.10;62.10;;;;;;220818;1267;22550;-52
2022/08/29 03:09:16;;;;;;;7.50;3.60;;;24.10;62.60;;;;;;220630;1267;22560;-54
2022/08/29 03:14:20;;;;;;;6.70;3.40;;;24.10;62.60;;;;;;220635;1268;22550;-52
2022/08/29 03:19:23;;;;;;;8.70;3.50;;;24.10;62.60;;;;;;220300;1270;24261;-50
2022/08/29 03:24:27;;;;;;;5.80;3.00;;;24.20;63.20;;;;;;220540;1267;25502;-54
2022/08/29 03:29:32;;;;;;;6.90;3.10;;;24.10;62.50;;;;;;220626;1268;25328;-53
2022/08/29 03:34:38;;;;;;;5.20;3.20;;;24.10;62.50;;;;;;220703;1268;24320;-54
2022/08/29 03:39:42;;;;;;;8.10;3.20;;;24.10;62.50;;;;;;220360;1268;22617;-54
2022/08/29 03:44:46;;;;;;;7.70;3.20;;;24.10;62.50;;;;;;220950;1270;25872;-51
2022/08/29 03:49:50;;;;;;;4.50;2.60;;;24.10;62.40;;;;;;220786;1268;22642;-54
2022/08/29 03:54:54;;;;;;;6.10;3.30;;;24.10;62.50;;;;;;220244;1268;25252;-52
2022/08/29 03:59:58;;;;;;;6.80;3.30;;;24.10;62.40;;;;;;220249;1270;22542;-54
2022/08/29 04:05:08;;;;;;;6.40;3.00;;;24.10;62.40;;;;;;220718;1268;24315;-54
2022/08/29 04:10:22;;;;;;;9.20;3.30;;;24.10;62.30;;;;;;220762;1271;22548;-55
2022/08/29 04:15:28;;;;;;;7.50;3.00;;;24.00;62.20;;;;;;221022;1268;22542;-54
2022/08/29 04:20:38;;;;;;;4.70;2.80;;;24.00;62.20;;;;;;220468;1268;22529;-54
2022/08/29 04:25:42;;;;;;;5.80;3.00;;;24.00;62.10;;;;;;220401;1268;25447;-54
2022/08/29 04:30:49;;;;;;;7.90;3.20;;;24.00;62.00;;;;;;220352;1268;22845;-54
2022/08/29 04:35:55;;;;;;;6.50;3.50;;;24.00;61.90;;;;;;220516;1268;22525;-54
2022/08/29 04:40:58;;;;;;;7.90;3.30;;;24.00;62.10;;;;;;220583;1268;24293;-54
2022/08/29 04:46:02;;;;;;;5.60;3.00;;;24.00;62.00;;;;;;220884;1268;22545;-53
2022/08/29 04:51:05;;;;;;;7.80;3.40;;;23.90;61.90;;;;;;220285;1268;22525;-53
2022/08/29 04:56:11;;;;;;;7.30;3.60;;;23.90;61.90;;;;;;218754;1267;1846479;-52
2022/08/29 05:01:18;;;;;;;8.40;3.70;;;23.90;61.90;;;;;;220284;1271;25510;-50
2022/08/29 05:06:22;;;;;;;8.00;3.30;;;23.90;61.60;;;;;;220941;1268;22552;-51
2022/08/29 05:11:29;;;;;;;5.70;3.80;;;23.90;61.90;;;;;;221039;1269;22913;-51
2022/08/29 05:16:36;;;;;;;6.30;3.20;;;23.90;61.90;;;;;;220572;1268;22519;-51
2022/08/29 05:21:39;;;;;;;8.10;4.20;;;23.90;62.00;;;;;;220149;1267;22894;-55
2022/08/29 05:26:44;;;;;;;6.70;3.40;;;23.90;62.00;;;;;;220480;1268;23178;-51
2022/08/29 05:31:48;;;;;;;6.40;3.40;;;23.90;62.00;;;;;;220344;1268;25245;-50
2022/08/29 05:36:52;;;;;;;8.20;3.30;;;23.90;62.00;;;;;;220248;1268;22535;-51
2022/08/29 05:41:57;;;;;;;5.60;3.30;;;23.90;62.10;;;;;;220762;1268;22746;-51
2022/08/29 05:47:06;;;;;;;8.30;4.00;;;23.90;62.20;;;;;;220914;1268;25427;-49
2022/08/29 05:52:12;;;;;;;6.30;3.70;;;23.90;62.20;;;;;;220234;1268;22534;-51
2022/08/29 05:57:19;;;;;;;8.20;3.80;;;23.80;62.10;;;;;;220939;1268;24395;-52
2022/08/29 06:02:23;;;;;;;7.90;4.10;;;23.80;62.60;;;;;;220794;1268;25352;-51
2022/08/29 06:07:26;;;;;;;8.40;3.80;;;23.80;62.50;;;;;;220974;1268;22558;-53
2022/08/29 06:12:32;;;;;;;7.20;3.70;;;23.90;62.10;;;;;;220924;1268;25201;-50
2022/08/29 06:17:37;;;;;;;10.10;4.00;;;23.80;62.10;;;;;;220697;1267;23453;-53
2022/08/29 06:22:41;;;;;;;8.60;3.50;;;23.80;62.20;;;;;;220066;1267;24001;-53
2022/08/29 06:27:46;;;;;;;8.90;3.90;;;23.80;62.00;;;;;;220271;1268;22580;-52
2022/08/29 06:32:51;;;;;;;6.70;3.90;;;23.90;61.90;;;;;;220070;1268;25311;-53
2022/08/29 06:37:56;;;;;;;9.50;3.90;;;23.90;61.60;;;;;;220519;1268;25447;-52
2022/08/29 06:43:02;;;;;;;6.50;3.20;;;23.90;61.80;;;;;;220632;1267;24120;-54
2022/08/29 06:48:06;;;;;;;9.00;3.70;;;24.00;62.10;;;;;;220810;1268;24139;-53
2022/08/29 06:53:10;;;;;;;7.30;3.30;;;24.10;62.40;;;;;;220368;1267;22550;-54
2022/08/29 06:58:29;;;;;;;8.00;3.30;;;24.10;62.90;;;;;;220604;1268;22560;-53
2022/08/29 07:03:33;;;;;;;8.50;3.50;;;24.10;62.80;;;;;;220860;1268;22540;-53
2022/08/29 07:08:38;;;;;;;9.10;3.40;;;24.10;62.50;;;;;;220384;1268;24292;-54
2022/08/29 07:14:00;;;;;;;8.50;3.60;;;24.20;62.10;;;;;;220311;1268;22721;-53
2022/08/29 07:19:06;;;;;;;6.50;3.20;;;24.20;62.10;;;;;;220493;1267;24558;-54
2022/08/29 07:24:12;;;;;;;6.00;3.20;;;24.20;62.80;;;;;;220949;1267;22528;-54
2022/08/29 07:29:20;;;;;;;7.10;3.00;;;24.30;61.70;;;;;;220500;1267;26647;-52
2022/08/29 07:34:23;;;;;;;6.00;3.30;;;24.20;62.40;;;;;;220819;1268;22544;-55
2022/08/29 07:39:27;;;;;;;5.70;3.10;;;24.30;62.00;;;;;;220548;1267;22535;-54
2022/08/29 07:44:31;;;;;;;5.10;2.90;;;24.30;62.30;;;;;;220720;1266;24083;-52
2022/08/29 07:49:37;;;;;;;6.50;3.20;;;24.30;61.60;;;;;;220161;1270;25313;-53
2022/08/29 07:54:44;;;;;;;5.20;3.20;;;24.20;61.30;;;;;;220700;1268;22540;-54
2022/08/29 07:59:48;;;;;;;7.70;3.60;;;24.30;61.00;;;;;;220242;1267;22675;-51
2022/08/29 08:04:53;;;;;;;6.90;3.50;;;24.30;61.30;;;;;;220189;1268;25414;-51
2022/08/29 08:09:57;;;;;;;6.50;3.00;;;24.30;61.30;;;;;;220225;1268;22566;-54
2022/08/29 08:15:05;;;;;;;6.20;3.00;;;24.30;60.50;;;;;;220402;1267;22869;-53
2022/08/29 08:20:20;;;;;;;7.10;3.60;;;24.30;59.90;;;;;;220125;1267;22564;-50
2022/08/29 08:25:35;;;;;;;5.70;3.10;;;24.30;59.30;;;;;;220920;1267;25229;-53
2022/08/29 08:30:42;;;;;;;7.20;3.50;;;24.30;59.70;;;;;;220969;1267;23953;-52
2022/08/29 08:35:49;;;;;;;5.50;3.30;;;24.30;59.70;;;;;;220806;1268;22551;-51
2022/08/29 08:41:02;;;;;;;7.60;3.40;;;24.30;58.30;;;;;;220794;1267;24270;-53
2022/08/29 08:46:07;;;;;;;6.40;3.40;;;24.30;59.30;;;;;;220455;1267;22564;-53
2022/08/29 08:51:34;;;;;;;7.00;3.40;;;24.40;59.40;;;;;;220466;1267;24217;-54
2022/08/29 08:56:43;;;;;;;8.30;3.40;;;24.40;59.20;;;;;;220502;1267;22750;-54
2022/08/29 09:02:16;;;;;;;7.80;3.90;;;24.40;59.00;;;;;;220708;1267;23460;-52
2022/08/29 09:07:35;;;;;;;6.20;3.60;;;24.50;58.60;;;;;;220551;1267;25235;-53
2022/08/29 09:12:45;;;;;;;7.30;3.60;;;24.50;58.80;;;;;;220489;1268;23948;-53
2022/08/29 09:18:06;;;;;;;7.30;3.50;;;24.50;58.90;;;;;;220340;1268;24217;-54
2022/08/29 09:23:51;;;;;;;7.30;3.50;;;24.50;58.30;;;;;;220534;1268;22531;-51
2022/08/29 09:28:57;;;;;;;6.10;3.40;;;24.50;58.10;;;;;;220235;1267;25366;-53
2022/08/29 09:34:09;;;;;;;7.50;3.50;;;24.50;57.80;;;;;;220576;1268;22547;-52
2022/08/29 09:39:17;;;;;;;7.30;3.80;;;24.60;57.40;;;;;;220423;1268;25362;-53
2022/08/29 09:44:35;;;;;;;7.40;3.40;;;24.60;57.20;;;;;;220683;1268;24428;-52
2022/08/29 09:50:04;;;;;;;8.10;3.70;;;24.60;57.20;;;;;;220626;1267;22620;-52
2022/08/29 09:55:43;;;;;;;5.70;3.10;;;24.60;56.20;;;;;;220590;1268;22706;-53
2022/08/29 10:00:59;;;;;;;6.90;3.40;;;24.50;55.90;;;;;;219581;1267;22573;-49
2022/08/29 10:06:20;;;;;;;8.70;3.90;;;24.60;55.90;;;;;;220282;1267;22525;-52
2022/08/29 10:12:02;;;;;;;6.80;3.30;;;24.60;55.50;;;;;;220145;1267;22551;-51
2022/08/29 10:22:47;;;;;;;11.20;3.60;;;24.70;55.90;;;;;;220335;1267;25899;-52
2022/08/29 10:28:08;;;;;;;7.30;3.50;;;24.80;55.70;;;;;;220128;1270;25242;-55
2022/08/29 10:33:24;;;;;;;8.20;4.00;;;24.90;55.60;;;;;;220193;1267;22831;-51
2022/08/29 10:38:51;;;;;;;7.20;3.20;;;24.90;55.70;;;;;;221005;1267;24216;-52
2022/08/29 10:44:21;;;;;;;5.70;3.40;;;24.80;55.40;;;;;;220318;1267;24257;-52
2022/08/29 10:50:24;;;;;;;7.30;3.10;;;24.90;55.90;;;;;;220368;1267;25250;-53
2022/08/29 10:56:14;;;;;;;6.00;3.20;;;24.80;55.70;;;;;;220463;1267;22532;-52
2022/08/29 11:01:26;;;;;;;7.00;3.20;;;24.90;55.30;;;;;;220761;1267;22604;-52
2022/08/29 11:06:46;;;;;;;7.20;3.40;;;24.90;55.50;;;;;;220736;1267;24302;-55
2022/08/29 11:12:01;;;;;;;11.00;3.60;;;24.90;54.80;;;;;;220463;1267;25416;-53
2022/08/29 11:17:11;;;;;;;7.60;3.40;;;24.90;55.20;;;;;;220602;1267;22794;-52
2022/08/29 11:22:40;;;;;;;7.60;3.00;;;24.90;55.50;;;;;;220789;1267;24208;-53
2022/08/29 11:27:53;;;;;;;7.50;3.10;;;24.90;54.90;;;;;;220383;1267;22553;-56
2022/08/29 11:34:16;;;;;;;;;;;;;;;;;;;;;
2022/08/29 11:39:39;;;;;;;6.80;3.40;;;24.90;54.80;;;;;;220763;1267;22540;-54
2022/08/29 11:44:59;;;;;;;5.30;2.90;;;24.90;55.30;;;;;;220960;1267;24265;-54
2022/08/29 11:50:39;;;;;;;6.50;3.00;;;25.00;54.80;;;;;;220485;1267;22613;-53
2022/08/29 11:56:27;;;;;;;5.60;3.20;;;25.00;54.40;;;;;;220499;1267;24678;-54
2022/08/29 12:02:04;;;;;;;6.50;2.80;;;25.00;54.00;;;;;;220446;1267;23168;-53
2022/08/29 12:08:05;;;;;;;7.00;2.90;;;25.00;54.80;;;;;;220671;1267;25253;-51
2022/08/29 12:13:59;;;;;;;5.20;2.60;;;25.10;54.90;;;;;;220520;1267;25294;-52
2022/08/29 12:19:53;;;;;;;6.10;2.50;;;25.10;55.10;;;;;;220421;1267;24260;-52
2022/08/29 12:26:01;;;;;;;8.50;2.80;;;25.10;54.40;;;;;;220497;1267;25471;-50
2022/08/29 12:32:14;;;;;;;7.00;2.70;;;25.10;53.80;;;;;;220782;1267;24319;-57
2022/08/29 12:38:25;;;;;;;7.90;3.10;;;25.10;54.70;;;;;;219877;1267;22633;-52
2022/08/29 12:43:50;;;;;;;5.10;2.40;;;25.10;54.30;;;;;;220523;1267;25347;-53
2022/08/29 12:49:15;;;;;;;5.80;2.60;;;25.20;55.00;;;;;;220397;1267;24309;-53
2022/08/29 12:54:43;;;;;;;8.10;3.10;;;25.20;54.20;;;;;;220813;1267;26482;-53
2022/08/29 13:00:18;;;;;;;6.60;3.70;;;25.20;53.70;;;;;;220437;1268;24424;-51
2022/08/29 13:05:23;;;;;;;6.70;2.70;;;25.20;54.20;;;;;;220178;1268;24303;-55
2022/08/29 13:10:31;;;;;;;10.50;3.60;;;25.20;53.60;;;;;;220209;1267;23981;-52
2022/08/29 13:15:44;;;;;;;7.80;3.00;;;25.40;55.40;;;;;;220445;1267;25397;-52
2022/08/29 13:21:08;;;;;;;7.40;3.50;;;25.40;54.60;;;;;;220404;1268;24241;-53
2022/08/29 13:26:26;;;;;;;9.60;3.10;;;25.40;54.40;;;;;;220622;1267;22531;-54
2022/08/29 13:32:27;;;;;;;8.80;3.10;;;25.40;54.80;;;;;;220551;1267;25273;-53
2022/08/29 13:38:01;;;;;;;7.90;3.00;;;25.30;55.20;;;;;;220445;1267;24237;-50
2022/08/29 13:43:37;;;;;;;7.60;3.30;;;25.40;55.40;;;;;;220854;1267;24249;-55
2022/08/29 13:48:56;;;;;;;8.50;3.80;;;25.30;55.40;;;;;;220123;1267;23922;-55
2022/08/29 13:53:59;;;;;;;8.00;3.50;;;25.30;55.50;;;;;;220746;1267;22557;-51
2022/08/29 13:59:04;;;;;;;7.30;2.80;;;25.30;54.90;;;;;;220102;1267;23446;-54
2022/08/29 14:04:25;;;;;;;6.80;3.00;;;25.20;54.40;;;;;;220582;1267;22663;-52
2022/08/29 14:09:44;;;;;;;6.20;3.00;;;25.20;54.50;;;;;;220827;1267;22626;-52
2022/08/29 14:14:48;;;;;;;7.20;3.10;;;25.20;54.10;;;;;;220754;1268;22567;-54
2022/08/29 14:19:54;;;;;;;5.90;3.00;;;25.20;54.30;;;;;;220268;1267;24319;-54
2022/08/29 14:24:59;;;;;;;5.70;3.10;;;25.20;54.00;;;;;;220775;1267;22626;-54
2022/08/29 14:30:07;;;;;;;7.70;3.20;;;25.20;54.00;;;;;;220207;1267;22539;-58
2022/08/29 14:35:10;;;;;;;6.60;2.90;;;25.20;54.50;;;;;;220677;1267;22708;-51
2022/08/29 14:40:30;;;;;;;6.30;3.10;;;25.20;54.50;;;;;;220876;1267;22551;-51
2022/08/29 14:45:35;;;;;;;6.20;3.10;;;25.10;54.00;;;;;;220911;1267;24286;-52
2022/08/29 14:50:39;;;;;;;5.50;3.30;;;25.20;54.30;;;;;;220520;1267;22541;-52
2022/08/29 14:55:43;;;;;;;6.50;2.80;;;25.20;54.20;;;;;;220687;1268;22553;-48
2022/08/29 15:00:48;;;;;;;6.00;2.90;;;25.20;53.80;;;;;;220452;1267;22529;-51
2022/08/29 15:05:54;;;;;;;5.10;3.10;;;25.10;53.50;;;;;;220564;1267;22532;-53
2022/08/29 15:10:59;;;;;;;5.70;2.90;;;25.10;53.80;;;;;;220747;1267;22527;-53
2022/08/29 15:16:04;;;;;;;6.20;2.80;;;25.10;54.20;;;;;;220575;1267;25375;-52
2022/08/29 15:21:09;;;;;;;7.10;3.00;;;25.10;53.30;;;;;;220250;1267;22784;-52
2022/08/29 15:26:14;;;;;;;5.60;3.20;;;25.10;53.90;;;;;;220511;1267;24329;-51
2022/08/29 15:31:21;;;;;;;9.00;3.40;;;25.10;53.80;;;;;;220663;1267;22540;-53
2022/08/29 15:36:24;;;;;;;6.10;3.00;;;25.10;53.80;;;;;;220736;1267;26504;-52
2022/08/29 15:41:29;;;;;;;6.60;3.20;;;25.10;53.40;;;;;;220469;1267;24230;-53
2022/08/29 15:46:32;;;;;;;6.10;3.00;;;25.10;54.00;;;;;;220432;1267;22567;-50
2022/08/29 15:51:40;;;;;;;5.60;3.10;;;25.10;53.80;;;;;;220359;1270;25253;-52
2022/08/29 15:56:45;;;;;;;6.50;3.00;;;25.10;54.00;;;;;;219456;1274;24273;-53
2022/08/29 16:01:53;;;;;;;7.30;3.20;;;25.10;53.50;;;;;;219544;1274;22540;-51
2022/08/29 16:06:58;;;;;;;6.10;3.00;;;25.10;53.60;;;;;;219631;1274;25351;-52
2022/08/29 16:12:06;;;;;;;4.90;3.10;;;25.10;53.90;;;;;;219270;1274;22698;-53
2022/08/29 16:17:10;;;;;;;5.50;3.10;;;25.10;53.10;;;;;;219252;1274;22543;-52
2022/08/29 16:22:17;;;;;;;6.70;2.90;;;25.00;52.80;;;;;;219991;1270;22550;-52
2022/08/29 16:27:23;;;;;;;8.50;3.30;;;25.10;52.70;;;;;;220690;1267;22720;-54
2022/08/29 16:32:28;;;;;;;6.90;3.80;;;25.10;53.10;;;;;;220449;1267;22551;-52
2022/08/29 16:37:32;;;;;;;7.30;3.30;;;25.10;53.00;;;;;;220402;1268;23162;-50
2022/08/29 16:42:38;;;;;;;6.10;2.90;;;25.00;53.00;;;;;;220650;1267;22546;-55
2022/08/29 16:47:42;;;;;;;5.10;3.30;;;25.00;53.10;;;;;;220928;1267;22532;-52
2022/08/29 16:52:46;;;;;;;5.60;3.20;;;25.00;53.20;;;;;;220323;1269;25343;-51
2022/08/29 17:03:12;;;;;;;5.50;3.30;;;24.90;53.10;;;;;;220464;1267;25276;-51
2022/08/29 17:18:36;;;;;;;4.00;2.80;;;24.90;53.50;;;;;;220618;1268;22528;-54
2022/08/29 17:23:41;;;;;;;6.30;3.20;;;24.90;53.50;;;;;;220718;1267;22529;-53
2022/08/29 17:28:46;;;;;;;7.20;3.30;;;24.90;53.70;;;;;;220676;1267;22538;-53
2022/08/29 17:33:50;;;;;;;7.10;3.30;;;24.90;53.80;;;;;;220565;1270;24357;-51
2022/08/29 17:38:54;;;;;;;5.80;3.30;;;24.90;54.00;;;;;;220355;1270;24250;-52
2022/08/29 17:43:58;;;;;;;5.70;3.30;;;24.90;54.00;;;;;;220596;1267;22557;-51
2022/08/29 17:49:04;;;;;;;6.20;3.20;;;24.90;54.30;;;;;;220390;1267;22537;-52
2022/08/29 17:54:13;;;;;;;5.90;3.20;;;24.90;54.50;;;;;;220634;1267;25242;-52
2022/08/29 17:59:20;;;;;;;6.60;3.20;;;24.90;54.80;;;;;;220584;1267;24412;-54
2022/08/29 18:04:25;;;;;;;5.40;3.20;;;24.90;54.90;;;;;;221037;1267;22772;-50
2022/08/29 18:09:35;;;;;;;8.20;3.50;;;24.90;55.10;;;;;;220394;1267;22559;-53
2022/08/29 18:14:56;;;;;;;5.80;3.50;;;24.80;55.40;;;;;;220808;1267;25540;-56
2022/08/29 18:20:07;;;;;;;6.80;3.50;;;24.90;56.20;;;;;;220416;1267;22535;-52
2022/08/29 18:25:12;;;;;;;6.10;3.30;;;24.80;55.90;;;;;;220366;1267;22559;-51
2022/08/29 18:30:16;;;;;;;5.00;3.10;;;24.80;55.80;;;;;;220371;1267;26574;-53
2022/08/29 18:35:20;;;;;;;5.90;3.40;;;24.80;55.80;;;;;;220756;1267;25447;-51
2022/08/29 18:40:44;;;;;;;8.30;3.60;;;24.80;55.90;;;;;;220284;1268;24446;-55
2022/08/29 18:46:14;;;;;;;5.70;3.40;;;24.70;55.90;;;;;;220557;1267;23270;-49
2022/08/29 18:51:54;;;;;;;;;;;;;;;;;;;;;
2022/08/29 18:57:16;;;;;;;6.20;3.70;;;24.70;56.00;;;;;;220379;1268;24272;-52
2022/08/29 19:02:22;;;;;;;6.40;3.90;;;24.70;55.90;;;;;;220445;1267;22544;-55
2022/08/29 19:07:35;;;;;;;8.00;4.10;;;24.70;56.00;;;;;;220290;1268;25245;-52
2022/08/29 19:12:43;;;;;;;8.80;3.50;;;24.70;56.00;;;;;;220611;1270;24190;-53
2022/08/29 19:17:50;;;;;;;5.30;3.50;;;24.70;56.10;;;;;;220619;1267;25235;-52
2022/08/29 19:23:07;;;;;;;6.60;3.60;;;24.70;56.10;;;;;;220526;1267;22546;-52
2022/08/29 19:28:21;;;;;;;6.70;3.40;;;24.60;56.10;;;;;;220386;1267;23069;-50
2022/08/29 19:33:53;;;;;;;6.40;3.20;;;24.70;56.20;;;;;;220522;1267;24303;-56
2022/08/29 19:39:07;;;;;;;7.00;3.20;;;24.60;56.30;;;;;;220684;1267;25333;-52
2022/08/29 19:44:22;;;;;;;6.40;3.50;;;24.60;56.60;;;;;;220887;1267;24275;-53
2022/08/29 19:49:27;;;;;;;5.90;3.30;;;24.60;56.70;;;;;;220769;1267;24293;-57
2022/08/29 19:54:33;;;;;;;7.90;3.40;;;24.60;56.40;;;;;;220448;1267;24209;-54
2022/08/29 19:59:40;;;;;;;5.30;3.30;;;24.60;56.60;;;;;;220515;1267;22532;-53
2022/08/29 20:04:45;;;;;;;4.70;3.00;;;24.60;56.70;;;;;;220200;1270;24427;-50
2022/08/29 20:09:50;;;;;;;6.20;3.50;;;24.60;57.00;;;;;;220769;1267;26552;-56
2022/08/29 20:15:01;;;;;;;5.00;3.30;;;24.50;56.70;;;;;;220632;1268;22534;-54
2022/08/29 20:20:23;;;;;;;6.50;3.20;;;24.50;56.70;;;;;;220070;1270;22702;-50
2022/08/29 20:25:31;;;;;;;6.90;3.60;;;24.50;56.80;;;;;;220628;1267;24441;-55
2022/08/29 20:30:36;;;;;;;5.50;3.30;;;24.50;56.80;;;;;;220664;1267;24646;-54
2022/08/29 20:41:13;;;;;;;5.30;3.50;;;24.50;56.90;;;;;;220373;1267;22577;-53
2022/08/29 20:46:40;;;;;;;5.70;3.20;;;24.50;56.90;;;;;;220850;1267;24404;-54
2022/08/29 20:51:44;;;;;;;7.90;3.30;;;24.50;57.60;;;;;;220580;1267;26491;-50
2022/08/29 20:56:50;;;;;;;6.70;3.50;;;24.50;57.60;;;;;;220372;1268;23924;-54
2022/08/29 21:01:55;;;;;;;4.90;3.20;;;24.50;57.30;;;;;;220562;1267;22711;-52
2022/08/29 21:07:03;;;;;;;5.80;3.20;;;24.40;57.00;;;;;;220403;1268;26121;-53
2022/08/29 21:12:08;;;;;;;5.50;3.10;;;24.40;57.30;;;;;;220410;1267;22549;-53
2022/08/29 21:17:13;;;;;;;5.30;3.10;;;24.40;57.00;;;;;;220679;1268;24225;-51
2022/08/29 21:22:17;;;;;;;8.40;3.40;;;24.40;57.10;;;;;;220505;1270;25461;-56
2022/08/29 21:27:29;;;;;;;5.40;3.30;;;24.40;57.20;;;;;;220800;1267;24335;-52
2022/08/29 21:32:33;;;;;;;7.30;3.60;;;24.40;57.30;;;;;;220422;1267;24304;-50
2022/08/29 21:37:36;;;;;;;5.70;3.10;;;24.40;57.30;;;;;;220323;1267;24215;-50
2022/08/29 21:42:54;;;;;;;4.60;3.00;;;24.40;57.30;;;;;;220204;1268;22830;-53
2022/08/29 21:47:59;;;;;;;5.00;3.20;;;24.30;57.30;;;;;;220399;1267;22655;-53
2022/08/29 21:53:03;;;;;;;6.30;3.20;;;24.30;57.40;;;;;;220698;1267;26526;-51
2022/08/29 21:58:07;;;;;;;7.50;3.30;;;24.40;56.90;;;;;;220383;1270;22529;-58
2022/08/29 22:03:11;;;;;;;7.20;3.50;;;24.30;57.30;;;;;;220787;1267;25534;-51
2022/08/29 22:08:15;;;;;;;5.40;2.80;;;24.30;57.40;;;;;;220672;1267;25437;-53
2022/08/29 22:13:19;;;;;;;8.30;3.60;;;24.30;57.80;;;;;;220312;1270;25817;-51
2022/08/29 22:18:27;;;;;;;5.40;3.40;;;24.30;57.50;;;;;;220565;1268;24290;-57
2022/08/29 22:23:33;;;;;;;6.90;3.40;;;24.30;57.50;;;;;;220550;1267;22676;-54
2022/08/29 22:28:37;;;;;;;7.00;3.20;;;24.20;57.50;;;;;;220340;1267;22541;-54
2022/08/29 22:33:42;;;;;;;5.50;3.50;;;24.20;57.60;;;;;;220566;1267;25204;-53
2022/08/29 22:38:52;;;;;;;8.20;3.70;;;24.20;57.50;;;;;;220720;1270;25317;-51
2022/08/29 22:44:03;;;;;;;4.90;2.90;;;24.20;57.60;;;;;;220797;1270;24293;-54
2022/08/29 22:49:30;;;;;;;6.60;3.50;;;24.20;57.70;;;;;;220668;1267;22534;-55
2022/08/29 22:54:35;;;;;;;6.70;3.70;;;24.20;57.70;;;;;;220489;1267;23951;-54
2022/08/29 22:59:41;;;;;;;8.30;3.70;;;24.20;57.90;;;;;;220636;1269;22608;-54
2022/08/29 23:04:50;;;;;;;6.40;3.50;;;24.20;57.90;;;;;;220597;1268;23952;-54
2022/08/29 23:09:55;;;;;;;5.70;3.10;;;24.10;57.90;;;;;;220652;1268;22532;-54
2022/08/29 23:14:59;;;;;;;7.40;3.40;;;24.10;57.60;;;;;;220999;1270;22552;-55
2022/08/29 23:20:08;;;;;;;6.20;3.10;;;24.10;57.60;;;;;;220564;1268;24418;-51
2022/08/29 23:25:14;;;;;;;5.50;3.20;;;24.10;57.70;;;;;;220810;1270;22579;-54
2022/08/29 23:30:19;;;;;;;6.70;3.10;;;24.10;57.60;;;;;;221043;1268;25374;-54
2022/08/29 23:35:24;;;;;;;6.20;3.30;;;24.10;58.10;;;;;;220422;1268;22567;-50
2022/08/29 23:40:38;;;;;;;5.40;3.60;;;24.10;57.60;;;;;;220057;1271;23131;-50
2022/08/29 23:45:48;;;;;;;6.20;3.50;;;24.10;57.70;;;;;;220467;1268;22529;-56
2022/08/29 23:50:57;;;;;;;7.80;3.40;;;24.10;57.60;;;;;;220453;1268;22541;-53
2022/08/29 23:56:09;;;;;;;7.50;3.30;;;24.10;57.80;;;;;;220225;1268;22554;-51
